sensor_id;sensor_type;location;lat;lon;timestamp;P1;durP1;ratioP1;P2;durP2;ratioP2
48361;SDS011;34510;51.888;5.670;2023-04-24T00:03:25;767.55;;;514.67;;
48361;SDS011;34510;51.888;5.670;2023-04-24T00:08:29;762.15;;;495.77;;
48361;SDS011;34510;51.888;5.670;2023-04-24T00:13:32;760.63;;;492.35;;
48361;SDS011;34510;51.888;5.670;2023-04-24T00:18:33;763.28;;;504.25;;
48361;SDS011;34510;51.888;5.670;2023-04-24T00:23:35;768.80;;;513.03;;
48361;SDS011;34510;51.888;5.670;2023-04-24T00:28:38;757.10;;;475.42;;
48361;SDS011;34510;51.888;5.670;2023-04-24T00:33:40;766.60;;;511.55;;
48361;SDS011;34510;51.888;5.670;2023-04-24T00:38:43;761.92;;;496.40;;
48361;SDS011;34510;51.888;5.670;2023-04-24T00:43:45;766.45;;;511.23;;
48361;SDS011;34510;51.888;5.670;2023-04-24T00:48:50;765.33;;;511.88;;
48361;SDS011;34510;51.888;5.670;2023-04-24T00:53:52;767.30;;;503.70;;
48361;SDS011;34510;51.888;5.670;2023-04-24T00:58:54;772.85;;;514.30;;
48361;SDS011;34510;51.888;5.670;2023-04-24T01:03:57;776.00;;;521.70;;
48361;SDS011;34510;51.888;5.670;2023-04-24T01:09:03;781.05;;;517.83;;
48361;SDS011;34510;51.888;5.670;2023-04-24T01:14:06;770.20;;;496.92;;
48361;SDS011;34510;51.888;5.670;2023-04-24T01:19:08;774.22;;;506.83;;
48361;SDS011;34510;51.888;5.670;2023-04-24T01:24:12;778.50;;;509.85;;
48361;SDS011;34510;51.888;5.670;2023-04-24T01:29:15;774.53;;;502.80;;
48361;SDS011;34510;51.888;5.670;2023-04-24T01:34:18;781.58;;;531.67;;
48361;SDS011;34510;51.888;5.670;2023-04-24T01:39:21;780.70;;;521.70;;
48361;SDS011;34510;51.888;5.670;2023-04-24T01:44:25;772.25;;;501.73;;
48361;SDS011;34510;51.888;5.670;2023-04-24T01:49:29;783.40;;;525.95;;
48361;SDS011;34510;51.888;5.670;2023-04-24T01:54:32;780.10;;;521.17;;
48361;SDS011;34510;51.888;5.670;2023-04-24T01:59:36;786.72;;;537.28;;
48361;SDS011;34510;51.888;5.670;2023-04-24T02:04:39;778.65;;;509.90;;
48361;SDS011;34510;51.888;5.670;2023-04-24T02:09:43;777.85;;;510.08;;
48361;SDS011;34510;51.888;5.670;2023-04-24T02:14:51;780.45;;;514.95;;
48361;SDS011;34510;51.888;5.670;2023-04-24T02:19:53;782.55;;;517.95;;
48361;SDS011;34510;51.888;5.670;2023-04-24T02:24:59;783.30;;;517.80;;
48361;SDS011;34510;51.888;5.670;2023-04-24T02:30:02;782.83;;;519.65;;
48361;SDS011;34510;51.888;5.670;2023-04-24T02:35:07;777.70;;;503.08;;
48361;SDS011;34510;51.888;5.670;2023-04-24T02:40:11;781.58;;;516.88;;
48361;SDS011;34510;51.888;5.670;2023-04-24T02:45:17;785.60;;;530.25;;
48361;SDS011;34510;51.888;5.670;2023-04-24T02:50:19;784.60;;;511.63;;
48361;SDS011;34510;51.888;5.670;2023-04-24T02:55:21;782.70;;;514.30;;
48361;SDS011;34510;51.888;5.670;2023-04-24T03:00:26;785.13;;;519.97;;
48361;SDS011;34510;51.888;5.670;2023-04-24T03:05:28;787.08;;;528.70;;
48361;SDS011;34510;51.888;5.670;2023-04-24T03:10:30;780.47;;;509.15;;
48361;SDS011;34510;51.888;5.670;2023-04-24T03:15:33;785.40;;;515.65;;
48361;SDS011;34510;51.888;5.670;2023-04-24T03:20:36;784.10;;;510.63;;
48361;SDS011;34510;51.888;5.670;2023-04-24T03:25:42;786.13;;;512.78;;
48361;SDS011;34510;51.888;5.670;2023-04-24T03:30:46;788.13;;;520.08;;
48361;SDS011;34510;51.888;5.670;2023-04-24T03:35:50;785.90;;;513.40;;
48361;SDS011;34510;51.888;5.670;2023-04-24T03:40:52;783.13;;;500.65;;
48361;SDS011;34510;51.888;5.670;2023-04-24T03:46:12;785.65;;;504.58;;
48361;SDS011;34510;51.888;5.670;2023-04-24T03:56:24;779.03;;;482.02;;
48361;SDS011;34510;51.888;5.670;2023-04-24T04:01:26;781.63;;;492.23;;
48361;SDS011;34510;51.888;5.670;2023-04-24T04:06:42;777.30;;;486.27;;
48361;SDS011;34510;51.888;5.670;2023-04-24T04:11:45;781.35;;;493.25;;
48361;SDS011;34510;51.888;5.670;2023-04-24T04:16:47;772.50;;;475.25;;
48361;SDS011;34510;51.888;5.670;2023-04-24T04:21:50;778.35;;;488.08;;
48361;SDS011;34510;51.888;5.670;2023-04-24T04:27:17;777.60;;;484.85;;
48361;SDS011;34510;51.888;5.670;2023-04-24T04:32:27;774.38;;;478.83;;
48361;SDS011;34510;51.888;5.670;2023-04-24T04:37:30;778.45;;;494.75;;
48361;SDS011;34510;51.888;5.670;2023-04-24T04:42:42;777.60;;;479.02;;
48361;SDS011;34510;51.888;5.670;2023-04-24T04:47:49;775.00;;;467.30;;
48361;SDS011;34510;51.888;5.670;2023-04-24T04:52:53;772.95;;;479.33;;
48361;SDS011;34510;51.888;5.670;2023-04-24T04:58:02;773.80;;;478.65;;
48361;SDS011;34510;51.888;5.670;2023-04-24T05:03:05;773.50;;;472.48;;
48361;SDS011;34510;51.888;5.670;2023-04-24T05:08:24;766.85;;;472.58;;
48361;SDS011;34510;51.888;5.670;2023-04-24T05:13:30;774.00;;;491.52;;
48361;SDS011;34510;51.888;5.670;2023-04-24T05:19:01;762.97;;;465.77;;
48361;SDS011;34510;51.888;5.670;2023-04-24T05:24:09;768.80;;;500.45;;
48361;SDS011;34510;51.888;5.670;2023-04-24T05:29:24;770.13;;;482.85;;
48361;SDS011;34510;51.888;5.670;2023-04-24T05:34:28;765.72;;;500.10;;
48361;SDS011;34510;51.888;5.670;2023-04-24T05:39:31;763.60;;;502.25;;
48361;SDS011;34510;51.888;5.670;2023-04-24T05:44:34;767.25;;;503.00;;
48361;SDS011;34510;51.888;5.670;2023-04-24T05:49:36;765.65;;;497.25;;
48361;SDS011;34510;51.888;5.670;2023-04-24T05:54:37;765.28;;;503.80;;
48361;SDS011;34510;51.888;5.670;2023-04-24T05:59:40;764.97;;;510.17;;
48361;SDS011;34510;51.888;5.670;2023-04-24T06:04:44;765.80;;;503.90;;
48361;SDS011;34510;51.888;5.670;2023-04-24T06:09:47;761.20;;;516.28;;
48361;SDS011;34510;51.888;5.670;2023-04-24T06:14:49;755.78;;;506.92;;
48361;SDS011;34510;51.888;5.670;2023-04-24T06:20:21;760.97;;;516.70;;
48361;SDS011;34510;51.888;5.670;2023-04-24T06:25:34;760.53;;;517.97;;
48361;SDS011;34510;51.888;5.670;2023-04-24T06:30:36;753.63;;;489.90;;
48361;SDS011;34510;51.888;5.670;2023-04-24T06:35:39;760.13;;;505.83;;
48361;SDS011;34510;51.888;5.670;2023-04-24T06:40:43;759.15;;;490.98;;
48361;SDS011;34510;51.888;5.670;2023-04-24T06:45:44;753.55;;;475.65;;
48361;SDS011;34510;51.888;5.670;2023-04-24T06:50:49;756.95;;;480.77;;
48361;SDS011;34510;51.888;5.670;2023-04-24T06:55:54;745.42;;;455.25;;
48361;SDS011;34510;51.888;5.670;2023-04-24T07:01:00;754.38;;;466.33;;
48361;SDS011;34510;51.888;5.670;2023-04-24T07:06:02;748.50;;;442.75;;
48361;SDS011;34510;51.888;5.670;2023-04-24T07:11:04;748.45;;;444.85;;
48361;SDS011;34510;51.888;5.670;2023-04-24T07:16:09;757.28;;;468.25;;
48361;SDS011;34510;51.888;5.670;2023-04-24T07:21:12;751.65;;;451.00;;
48361;SDS011;34510;51.888;5.670;2023-04-24T07:26:14;754.90;;;458.35;;
48361;SDS011;34510;51.888;5.670;2023-04-24T07:31:16;757.72;;;458.10;;
48361;SDS011;34510;51.888;5.670;2023-04-24T07:36:19;752.90;;;440.73;;
48361;SDS011;34510;51.888;5.670;2023-04-24T07:41:22;761.80;;;456.42;;
48361;SDS011;34510;51.888;5.670;2023-04-24T07:46:29;753.90;;;444.20;;
48361;SDS011;34510;51.888;5.670;2023-04-24T07:51:32;758.25;;;461.50;;
48361;SDS011;34510;51.888;5.670;2023-04-24T08:01:44;755.67;;;479.10;;
48361;SDS011;34510;51.888;5.670;2023-04-24T08:06:47;774.60;;;502.63;;
48361;SDS011;34510;51.888;5.670;2023-04-24T08:11:49;773.67;;;489.43;;
48361;SDS011;34510;51.888;5.670;2023-04-24T08:16:53;737.90;;;424.45;;
48361;SDS011;34510;51.888;5.670;2023-04-24T08:21:57;740.13;;;431.92;;
48361;SDS011;34510;51.888;5.670;2023-04-24T08:26:59;746.17;;;425.42;;
48361;SDS011;34510;51.888;5.670;2023-04-24T08:32:02;743.92;;;416.95;;
48361;SDS011;34510;51.888;5.670;2023-04-24T08:37:05;751.00;;;427.52;;
48361;SDS011;34510;51.888;5.670;2023-04-24T08:42:10;740.85;;;412.65;;
48361;SDS011;34510;51.888;5.670;2023-04-24T08:47:13;741.20;;;421.27;;
48361;SDS011;34510;51.888;5.670;2023-04-24T08:52:17;748.92;;;418.02;;
48361;SDS011;34510;51.888;5.670;2023-04-24T08:57:20;750.83;;;419.52;;
48361;SDS011;34510;51.888;5.670;2023-04-24T09:02:23;753.88;;;433.88;;
48361;SDS011;34510;51.888;5.670;2023-04-24T09:07:28;750.28;;;424.02;;
48361;SDS011;34510;51.888;5.670;2023-04-24T09:12:38;745.63;;;423.35;;
48361;SDS011;34510;51.888;5.670;2023-04-24T09:17:41;742.60;;;436.00;;
48361;SDS011;34510;51.888;5.670;2023-04-24T09:22:44;745.33;;;447.75;;
48361;SDS011;34510;51.888;5.670;2023-04-24T09:27:47;744.17;;;442.42;;
48361;SDS011;34510;51.888;5.670;2023-04-24T09:32:49;748.78;;;453.85;;
48361;SDS011;34510;51.888;5.670;2023-04-24T09:37:54;744.53;;;460.60;;
48361;SDS011;34510;51.888;5.670;2023-04-24T09:42:59;740.05;;;466.42;;
48361;SDS011;34510;51.888;5.670;2023-04-24T09:48:05;746.03;;;476.17;;
48361;SDS011;34510;51.888;5.670;2023-04-24T09:53:11;742.47;;;474.15;;
48361;SDS011;34510;51.888;5.670;2023-04-24T09:58:14;754.72;;;490.73;;
48361;SDS011;34510;51.888;5.670;2023-04-24T10:03:16;759.65;;;527.25;;
48361;SDS011;34510;51.888;5.670;2023-04-24T10:08:19;762.40;;;546.37;;
48361;SDS011;34510;51.888;5.670;2023-04-24T10:13:22;766.80;;;552.47;;
48361;SDS011;34510;51.888;5.670;2023-04-24T10:18:27;786.33;;;615.73;;
48361;SDS011;34510;51.888;5.670;2023-04-24T10:23:29;794.30;;;636.47;;
48361;SDS011;34510;51.888;5.670;2023-04-24T10:28:32;776.87;;;595.23;;
48361;SDS011;34510;51.888;5.670;2023-04-24T10:33:35;761.05;;;558.97;;
48361;SDS011;34510;51.888;5.670;2023-04-24T10:38:38;767.97;;;544.67;;
48361;SDS011;34510;51.888;5.670;2023-04-24T10:43:42;776.70;;;589.47;;
48361;SDS011;34510;51.888;5.670;2023-04-24T10:48:51;774.40;;;575.73;;
48361;SDS011;34510;51.888;5.670;2023-04-24T10:54:29;769.53;;;539.50;;
48361;SDS011;34510;51.888;5.670;2023-04-24T10:59:36;761.83;;;538.40;;
48361;SDS011;34510;51.888;5.670;2023-04-24T11:04:47;786.07;;;601.20;;
48361;SDS011;34510;51.888;5.670;2023-04-24T11:09:58;791.27;;;613.90;;
48361;SDS011;34510;51.888;5.670;2023-04-24T11:15:02;773.30;;;565.13;;
48361;SDS011;34510;51.888;5.670;2023-04-24T11:20:08;757.95;;;526.03;;
48361;SDS011;34510;51.888;5.670;2023-04-24T11:25:30;759.85;;;516.90;;
48361;SDS011;34510;51.888;5.670;2023-04-24T11:30:33;756.45;;;516.03;;
48361;SDS011;34510;51.888;5.670;2023-04-24T11:35:55;773.35;;;575.25;;
48361;SDS011;34510;51.888;5.670;2023-04-24T11:40:59;760.70;;;540.22;;
48361;SDS011;34510;51.888;5.670;2023-04-24T11:46:13;766.60;;;573.25;;
48361;SDS011;34510;51.888;5.670;2023-04-24T11:51:18;774.47;;;573.28;;
48361;SDS011;34510;51.888;5.670;2023-04-24T11:56:24;771.15;;;567.33;;
48361;SDS011;34510;51.888;5.670;2023-04-24T12:01:26;778.70;;;571.60;;
48361;SDS011;34510;51.888;5.670;2023-04-24T12:06:29;777.08;;;575.17;;
48361;SDS011;34510;51.888;5.670;2023-04-24T12:11:32;773.58;;;570.35;;
48361;SDS011;34510;51.888;5.670;2023-04-24T12:16:34;765.45;;;573.08;;
48361;SDS011;34510;51.888;5.670;2023-04-24T12:21:37;765.15;;;550.08;;
48361;SDS011;34510;51.888;5.670;2023-04-24T12:26:42;753.78;;;521.25;;
48361;SDS011;34510;51.888;5.670;2023-04-24T12:31:48;750.95;;;492.08;;
48361;SDS011;34510;51.888;5.670;2023-04-24T12:36:50;755.35;;;491.98;;
48361;SDS011;34510;51.888;5.670;2023-04-24T12:41:56;756.58;;;489.23;;
48361;SDS011;34510;51.888;5.670;2023-04-24T12:46:58;755.28;;;480.40;;
48361;SDS011;34510;51.888;5.670;2023-04-24T12:52:01;745.83;;;461.35;;
48361;SDS011;34510;51.888;5.670;2023-04-24T12:57:07;752.20;;;463.25;;
48361;SDS011;34510;51.888;5.670;2023-04-24T13:02:10;755.75;;;473.15;;
48361;SDS011;34510;51.888;5.670;2023-04-24T13:07:13;754.00;;;468.60;;
48361;SDS011;34510;51.888;5.670;2023-04-24T13:12:19;751.17;;;474.63;;
48361;SDS011;34510;51.888;5.670;2023-04-24T13:17:21;754.75;;;489.33;;
48361;SDS011;34510;51.888;5.670;2023-04-24T13:22:24;756.90;;;491.58;;
48361;SDS011;34510;51.888;5.670;2023-04-24T13:27:28;759.55;;;496.63;;
48361;SDS011;34510;51.888;5.670;2023-04-24T13:32:29;764.83;;;519.88;;
48361;SDS011;34510;51.888;5.670;2023-04-24T13:37:33;762.13;;;508.48;;
48361;SDS011;34510;51.888;5.670;2023-04-24T13:42:34;762.58;;;514.83;;
48361;SDS011;34510;51.888;5.670;2023-04-24T13:47:36;768.20;;;529.65;;
48361;SDS011;34510;51.888;5.670;2023-04-24T13:52:39;765.38;;;515.25;;
48361;SDS011;34510;51.888;5.670;2023-04-24T13:57:49;764.80;;;509.95;;
48361;SDS011;34510;51.888;5.670;2023-04-24T14:02:51;765.17;;;523.10;;
48361;SDS011;34510;51.888;5.670;2023-04-24T14:07:53;773.60;;;552.13;;
48361;SDS011;34510;51.888;5.670;2023-04-24T14:12:55;766.10;;;532.55;;
48361;SDS011;34510;51.888;5.670;2023-04-24T14:17:57;771.85;;;558.03;;
48361;SDS011;34510;51.888;5.670;2023-04-24T14:23:01;781.45;;;581.70;;
48361;SDS011;34510;51.888;5.670;2023-04-24T14:28:03;782.22;;;579.15;;
48361;SDS011;34510;51.888;5.670;2023-04-24T14:33:05;784.00;;;572.90;;
48361;SDS011;34510;51.888;5.670;2023-04-24T14:38:10;775.58;;;553.00;;
48361;SDS011;34510;51.888;5.670;2023-04-24T14:43:12;772.20;;;563.83;;
48361;SDS011;34510;51.888;5.670;2023-04-24T14:48:14;778.40;;;564.17;;
48361;SDS011;34510;51.888;5.670;2023-04-24T14:53:21;783.17;;;586.42;;
48361;SDS011;34510;51.888;5.670;2023-04-24T14:58:23;775.78;;;589.70;;
48361;SDS011;34510;51.888;5.670;2023-04-24T15:03:26;767.80;;;565.40;;
48361;SDS011;34510;51.888;5.670;2023-04-24T15:08:29;773.58;;;567.30;;
48361;SDS011;34510;51.888;5.670;2023-04-24T15:13:32;777.83;;;570.35;;
48361;SDS011;34510;51.888;5.670;2023-04-24T15:18:34;770.92;;;571.58;;
48361;SDS011;34510;51.888;5.670;2023-04-24T15:23:36;779.25;;;580.97;;
48361;SDS011;34510;51.888;5.670;2023-04-24T15:28:38;778.00;;;581.63;;
48361;SDS011;34510;51.888;5.670;2023-04-24T15:33:40;772.13;;;572.38;;
48361;SDS011;34510;51.888;5.670;2023-04-24T15:38:43;774.60;;;567.35;;
48361;SDS011;34510;51.888;5.670;2023-04-24T15:43:47;769.50;;;530.47;;
48361;SDS011;34510;51.888;5.670;2023-04-24T15:48:50;760.95;;;515.45;;
48361;SDS011;34510;51.888;5.670;2023-04-24T15:53:53;772.72;;;532.28;;
48361;SDS011;34510;51.888;5.670;2023-04-24T15:58:54;760.40;;;508.88;;
48361;SDS011;34510;51.888;5.670;2023-04-24T16:03:56;769.78;;;532.20;;
48361;SDS011;34510;51.888;5.670;2023-04-24T16:09:00;769.50;;;520.15;;
48361;SDS011;34510;51.888;5.670;2023-04-24T16:14:04;768.63;;;522.47;;
48361;SDS011;34510;51.888;5.670;2023-04-24T16:19:10;766.40;;;517.72;;
48361;SDS011;34510;51.888;5.670;2023-04-24T16:24:12;774.22;;;517.10;;
48361;SDS011;34510;51.888;5.670;2023-04-24T16:29:15;769.38;;;510.52;;
48361;SDS011;34510;51.888;5.670;2023-04-24T16:34:18;772.17;;;527.28;;
48361;SDS011;34510;51.888;5.670;2023-04-24T16:39:20;765.97;;;511.60;;
48361;SDS011;34510;51.888;5.670;2023-04-24T16:44:23;767.13;;;510.27;;
48361;SDS011;34510;51.888;5.670;2023-04-24T16:49:25;772.90;;;508.48;;
48361;SDS011;34510;51.888;5.670;2023-04-24T16:54:31;760.00;;;498.30;;
48361;SDS011;34510;51.888;5.670;2023-04-24T16:59:39;763.42;;;510.10;;
48361;SDS011;34510;51.888;5.670;2023-04-24T17:04:41;764.13;;;493.15;;
48361;SDS011;34510;51.888;5.670;2023-04-24T17:09:43;768.65;;;504.88;;
48361;SDS011;34510;51.888;5.670;2023-04-24T17:14:46;758.03;;;498.27;;
48361;SDS011;34510;51.888;5.670;2023-04-24T17:19:49;760.55;;;505.88;;
48361;SDS011;34510;51.888;5.670;2023-04-24T17:24:55;774.33;;;505.83;;
48361;SDS011;34510;51.888;5.670;2023-04-24T17:29:57;757.72;;;499.15;;
48361;SDS011;34510;51.888;5.670;2023-04-24T17:35:00;753.10;;;502.63;;
48361;SDS011;34510;51.888;5.670;2023-04-24T17:40:03;754.65;;;475.83;;
48361;SDS011;34510;51.888;5.670;2023-04-24T17:45:06;756.83;;;485.65;;
48361;SDS011;34510;51.888;5.670;2023-04-24T17:50:11;763.80;;;487.33;;
48361;SDS011;34510;51.888;5.670;2023-04-24T17:55:13;753.25;;;468.30;;
48361;SDS011;34510;51.888;5.670;2023-04-24T18:00:16;760.00;;;477.95;;
48361;SDS011;34510;51.888;5.670;2023-04-24T18:05:19;756.60;;;466.80;;
48361;SDS011;34510;51.888;5.670;2023-04-24T18:10:23;750.50;;;456.88;;
48361;SDS011;34510;51.888;5.670;2023-04-24T18:15:26;750.42;;;446.02;;
48361;SDS011;34510;51.888;5.670;2023-04-24T18:20:28;748.35;;;448.08;;
48361;SDS011;34510;51.888;5.670;2023-04-24T18:25:30;750.75;;;460.95;;
48361;SDS011;34510;51.888;5.670;2023-04-24T18:30:32;746.00;;;476.03;;
48361;SDS011;34510;51.888;5.670;2023-04-24T18:35:38;798.47;;;548.83;;
48361;SDS011;34510;51.888;5.670;2023-04-24T18:40:43;770.03;;;521.47;;
48361;SDS011;34510;51.888;5.670;2023-04-24T18:45:46;763.87;;;479.23;;
48361;SDS011;34510;51.888;5.670;2023-04-24T18:50:48;760.93;;;489.43;;
48361;SDS011;34510;51.888;5.670;2023-04-24T18:55:49;818.47;;;557.50;;
48361;SDS011;34510;51.888;5.670;2023-04-24T19:00:52;793.20;;;530.53;;
48361;SDS011;34510;51.888;5.670;2023-04-24T19:05:54;761.40;;;488.40;;
48361;SDS011;34510;51.888;5.670;2023-04-24T19:10:56;833.37;;;517.67;;
48361;SDS011;34510;51.888;5.670;2023-04-24T19:16:01;787.45;;;454.65;;
48361;SDS011;34510;51.888;5.670;2023-04-24T19:21:03;757.08;;;432.05;;
48361;SDS011;34510;51.888;5.670;2023-04-24T19:26:06;761.70;;;417.23;;
48361;SDS011;34510;51.888;5.670;2023-04-24T19:31:08;755.53;;;411.15;;
48361;SDS011;34510;51.888;5.670;2023-04-24T19:36:10;780.53;;;475.30;;
48361;SDS011;34510;51.888;5.670;2023-04-24T19:41:13;761.45;;;453.27;;
48361;SDS011;34510;51.888;5.670;2023-04-24T19:46:15;739.92;;;400.52;;
48361;SDS011;34510;51.888;5.670;2023-04-24T19:51:17;799.77;;;532.30;;
48361;SDS011;34510;51.888;5.670;2023-04-24T19:56:25;759.80;;;469.03;;
48361;SDS011;34510;51.888;5.670;2023-04-24T20:01:46;750.57;;;460.70;;
48361;SDS011;34510;51.888;5.670;2023-04-24T20:06:49;772.43;;;491.43;;
48361;SDS011;34510;51.888;5.670;2023-04-24T20:11:53;748.13;;;449.00;;
48361;SDS011;34510;51.888;5.670;2023-04-24T20:16:55;770.63;;;488.63;;
48361;SDS011;34510;51.888;5.670;2023-04-24T20:21:58;750.00;;;440.50;;
48361;SDS011;34510;51.888;5.670;2023-04-24T20:27:19;812.03;;;558.57;;
48361;SDS011;34510;51.888;5.670;2023-04-24T20:32:21;800.13;;;523.27;;
48361;SDS011;34510;51.888;5.670;2023-04-24T20:37:23;740.13;;;412.60;;
48361;SDS011;34510;51.888;5.670;2023-04-24T20:42:26;758.50;;;437.90;;
48361;SDS011;34510;51.888;5.670;2023-04-24T20:47:28;781.97;;;451.27;;
48361;SDS011;34510;51.888;5.670;2023-04-24T20:52:32;740.97;;;400.13;;
48361;SDS011;34510;51.888;5.670;2023-04-24T20:57:35;801.57;;;461.87;;
48361;SDS011;34510;51.888;5.670;2023-04-24T21:02:38;769.38;;;431.60;;
48361;SDS011;34510;51.888;5.670;2023-04-24T21:07:41;786.87;;;453.90;;
48361;SDS011;34510;51.888;5.670;2023-04-24T21:12:44;754.90;;;427.50;;
48361;SDS011;34510;51.888;5.670;2023-04-24T21:17:48;741.13;;;391.02;;
48361;SDS011;34510;51.888;5.670;2023-04-24T21:22:50;771.13;;;442.13;;
48361;SDS011;34510;51.888;5.670;2023-04-24T21:27:53;745.55;;;401.73;;
48361;SDS011;34510;51.888;5.670;2023-04-24T21:32:55;740.42;;;382.42;;
48361;SDS011;34510;51.888;5.670;2023-04-24T21:38:11;739.83;;;377.48;;
48361;SDS011;34510;51.888;5.670;2023-04-24T21:43:14;750.42;;;400.92;;
48361;SDS011;34510;51.888;5.670;2023-04-24T21:48:28;762.63;;;410.17;;
48361;SDS011;34510;51.888;5.670;2023-04-24T21:53:29;740.72;;;395.05;;
48361;SDS011;34510;51.888;5.670;2023-04-24T21:58:33;747.63;;;401.25;;
48361;SDS011;34510;51.888;5.670;2023-04-24T22:03:35;736.20;;;387.92;;
48361;SDS011;34510;51.888;5.670;2023-04-24T22:08:39;753.08;;;415.88;;
48361;SDS011;34510;51.888;5.670;2023-04-24T22:13:51;733.97;;;377.20;;
48361;SDS011;34510;51.888;5.670;2023-04-24T22:18:53;753.27;;;448.23;;
48361;SDS011;34510;51.888;5.670;2023-04-24T22:23:57;799.50;;;494.03;;
48361;SDS011;34510;51.888;5.670;2023-04-24T22:28:59;738.30;;;356.42;;
48361;SDS011;34510;51.888;5.670;2023-04-24T22:34:01;740.42;;;357.25;;
48361;SDS011;34510;51.888;5.670;2023-04-24T22:39:04;735.67;;;349.42;;
48361;SDS011;34510;51.888;5.670;2023-04-24T22:44:09;736.72;;;349.42;;
48361;SDS011;34510;51.888;5.670;2023-04-24T22:49:11;736.65;;;354.73;;
48361;SDS011;34510;51.888;5.670;2023-04-24T22:54:18;737.40;;;357.90;;
48361;SDS011;34510;51.888;5.670;2023-04-24T22:59:19;728.78;;;333.42;;
48361;SDS011;34510;51.888;5.670;2023-04-24T23:04:26;727.40;;;353.80;;
48361;SDS011;34510;51.888;5.670;2023-04-24T23:09:29;757.75;;;411.80;;
48361;SDS011;34510;51.888;5.670;2023-04-24T23:14:34;728.75;;;360.33;;
48361;SDS011;34510;51.888;5.670;2023-04-24T23:19:37;729.97;;;370.15;;
48361;SDS011;34510;51.888;5.670;2023-04-24T23:24:38;738.28;;;354.10;;
48361;SDS011;34510;51.888;5.670;2023-04-24T23:29:41;732.47;;;328.30;;
48361;SDS011;34510;51.888;5.670;2023-04-24T23:34:44;726.78;;;322.88;;
48361;SDS011;34510;51.888;5.670;2023-04-24T23:39:47;693.75;;;315.52;;
48361;SDS011;34510;51.888;5.670;2023-04-24T23:44:49;667.78;;;337.45;;
48361;SDS011;34510;51.888;5.670;2023-04-24T23:49:54;684.28;;;327.33;;
48361;SDS011;34510;51.888;5.670;2023-04-24T23:54:57;685.78;;;328.45;;
